createdAt,value
2023-03-26T00:01:57.117Z,94.49
2023-03-26T00:04:27.746Z,94.22
2023-03-26T00:06:58.289Z,93.93
2023-03-26T00:09:28.871Z,94.28
2023-03-26T00:11:59.500Z,94.34
2023-03-26T00:14:30.071Z,94.17
2023-03-26T00:17:00.687Z,94.24
2023-03-26T00:19:30.956Z,93.65
2023-03-26T00:22:01.560Z,94.31
2023-03-26T00:24:32.225Z,94.37
2023-03-26T00:27:02.750Z,92.91
2023-03-26T00:29:33.323Z,92.86
2023-03-26T00:32:03.910Z,92.39
2023-03-26T00:34:34.526Z,92.74
2023-03-26T00:37:05.101Z,92.49
2023-03-26T00:39:35.785Z,92.74
2023-03-26T00:42:06.293Z,93.03
2023-03-26T00:44:36.883Z,92.77
2023-03-26T00:47:07.509Z,93.66
2023-03-26T00:49:38.114Z,93.35
2023-03-26T00:52:08.811Z,93.25
2023-03-26T00:54:39.371Z,93.38
2023-03-26T00:57:09.994Z,93.22
2023-03-26T00:59:40.649Z,93.33
2023-03-26T01:02:11.253Z,93.43
2023-03-26T01:04:41.979Z,93.44
2023-03-26T01:07:12.418Z,93.64
2023-03-26T01:09:43.114Z,93.71
2023-03-26T01:12:13.674Z,93.68
2023-03-26T01:14:44.271Z,94.16
2023-03-26T01:17:14.921Z,93.82
2023-03-26T01:19:45.274Z,93.86
2023-03-26T01:22:15.822Z,93.82
2023-03-26T01:24:46.446Z,92.90
2023-03-26T01:27:17.077Z,92.93
2023-03-26T01:29:47.697Z,93.04
2023-03-26T01:32:18.369Z,93.82
2023-03-26T01:34:48.950Z,93.70
2023-03-26T01:37:19.580Z,94.02
2023-03-26T01:39:50.200Z,92.87
2023-03-26T01:42:20.865Z,92.71
2023-03-26T01:44:51.463Z,92.75
2023-03-26T01:47:22.096Z,92.47
2023-03-26T01:49:52.754Z,92.16
2023-03-26T01:52:23.403Z,92.03
2023-03-26T01:54:54.014Z,91.96
2023-03-26T01:57:24.644Z,91.62
2023-03-26T01:59:55.246Z,91.35
2023-03-26T02:02:26.031Z,91.51
2023-03-26T02:04:56.511Z,91.35
2023-03-26T02:07:27.141Z,91.62
2023-03-26T02:09:57.774Z,91.19
2023-03-26T02:12:28.409Z,91.44
2023-03-26T02:14:59.026Z,91.43
2023-03-26T02:17:29.718Z,91.18
2023-03-26T02:20:00.278Z,91.05
2023-03-26T02:22:30.930Z,90.85
2023-03-26T02:25:01.598Z,91.18
2023-03-26T02:27:32.164Z,91.02
2023-03-26T02:30:02.767Z,91.18
2023-03-26T02:32:33.504Z,91.21
2023-03-26T02:35:04.010Z,91.44
2023-03-26T02:37:34.639Z,91.20
2023-03-26T02:40:05.257Z,90.22
2023-03-26T02:42:35.895Z,90.62
2023-03-26T02:45:06.513Z,91.27
2023-03-26T02:47:37.156Z,90.69
2023-03-26T02:50:07.764Z,90.73
2023-03-26T02:52:38.397Z,90.60
2023-03-26T02:55:09.029Z,90.71
2023-03-26T02:57:39.677Z,90.61
2023-03-26T03:00:10.343Z,90.92
2023-03-26T03:02:40.968Z,90.95
2023-03-26T03:05:11.606Z,90.75
2023-03-26T03:07:42.168Z,90.74
2023-03-26T03:10:12.788Z,90.70
2023-03-26T03:12:43.432Z,90.72
2023-03-26T03:15:14.039Z,90.84
2023-03-26T03:17:44.709Z,90.35
2023-03-26T03:20:15.315Z,90.55
2023-03-26T03:22:46.030Z,90.05
2023-03-26T03:25:16.677Z,90.27
2023-03-26T03:27:47.227Z,90.38
2023-03-26T03:30:17.846Z,90.79
2023-03-26T03:32:48.531Z,90.34
2023-03-26T03:35:19.143Z,90.75
2023-03-26T03:37:49.817Z,90.28
2023-03-26T03:40:20.440Z,90.75
2023-03-26T03:42:51.103Z,91.28
2023-03-26T03:45:21.707Z,91.75
2023-03-26T03:47:52.392Z,92.00
2023-03-26T03:50:23.017Z,91.86
2023-03-26T03:52:53.653Z,91.68
2023-03-26T03:55:24.359Z,91.96
2023-03-26T03:57:54.989Z,91.68
2023-03-26T04:00:25.582Z,91.66
2023-03-26T04:02:56.390Z,92.35
2023-03-26T04:05:26.865Z,91.75
2023-03-26T04:07:57.507Z,92.08
2023-03-26T04:10:28.144Z,92.50
2023-03-26T04:12:58.793Z,92.54
2023-03-26T04:15:29.415Z,92.35
2023-03-26T04:18:00.178Z,92.25
2023-03-26T04:20:30.743Z,91.92
2023-03-26T04:23:01.367Z,92.17
2023-03-26T04:25:32.004Z,92.85
2023-03-26T04:28:02.666Z,92.63
2023-03-26T04:30:33.293Z,92.71
2023-03-26T04:33:04.157Z,92.66
2023-03-26T04:35:34.637Z,92.48
2023-03-26T04:38:05.235Z,92.24
2023-03-26T04:40:35.893Z,92.06
2023-03-26T04:43:06.540Z,92.23
2023-03-26T04:45:37.211Z,91.19
2023-03-26T04:48:07.825Z,90.94
2023-03-26T04:50:38.191Z,90.93
2023-03-26T04:53:08.853Z,91.55
2023-03-26T04:55:39.509Z,91.13
2023-03-26T04:58:10.171Z,90.81
2023-03-26T05:00:40.870Z,91.23
2023-03-26T05:03:11.478Z,91.79
2023-03-26T05:05:42.130Z,92.08
2023-03-26T05:08:12.785Z,91.95
2023-03-26T05:10:43.425Z,92.20
2023-03-26T05:13:14.147Z,92.09
2023-03-26T05:15:44.721Z,92.19
2023-03-26T05:18:15.096Z,91.87
2023-03-26T05:20:45.739Z,91.99
2023-03-26T05:23:16.378Z,91.87
2023-03-26T05:25:46.988Z,92.29
2023-03-26T05:28:17.642Z,92.31
2023-03-26T05:30:48.256Z,91.73
2023-03-26T05:33:19.045Z,92.22
2023-03-26T05:35:49.191Z,92.24
2023-03-26T05:38:19.782Z,92.25
2023-03-26T05:40:50.408Z,91.97
2023-03-26T05:43:21.036Z,92.59
2023-03-26T05:45:51.686Z,92.89
2023-03-26T05:48:21.980Z,92.05
2023-03-26T05:50:53.098Z,92.20
2023-03-26T05:53:23.226Z,92.20
2023-03-26T05:55:53.528Z,91.64
2023-03-26T05:58:23.799Z,91.73
2023-03-26T06:00:54.658Z,91.79
2023-03-26T06:03:24.686Z,92.13
2023-03-26T06:05:55.146Z,92.67
2023-03-26T06:08:25.676Z,94.62
2023-03-26T06:10:56.675Z,93.83
2023-03-26T06:13:26.596Z,93.84
2023-03-26T06:15:57.253Z,94.11
2023-03-26T06:18:27.918Z,93.65
2023-03-26T06:20:58.530Z,93.48
2023-03-26T06:23:28.726Z,93.23
2023-03-26T06:25:58.787Z,93.41
2023-03-26T06:28:29.446Z,93.40
2023-03-26T06:31:00.259Z,93.52
2023-03-26T06:33:30.881Z,93.32
2023-03-26T06:36:01.590Z,95.17
2023-03-26T06:38:31.843Z,100.00
2023-03-26T06:41:02.460Z,97.14
2023-03-26T06:43:33.099Z,95.46
2023-03-26T06:46:03.726Z,94.81
2023-03-26T06:48:34.021Z,94.58
2023-03-26T06:51:04.654Z,94.77
2023-03-26T06:53:34.896Z,94.56
2023-03-26T06:56:07.077Z,94.68
2023-03-26T06:58:35.873Z,95.66
2023-03-26T07:01:06.249Z,95.48
2023-03-26T07:03:36.500Z,95.30
2023-03-26T07:06:07.077Z,94.85
2023-03-26T07:08:37.424Z,95.41
2023-03-26T07:11:08.324Z,95.47
2023-03-26T07:13:38.964Z,95.26
2023-03-26T07:16:09.599Z,95.45
2023-03-26T07:18:39.851Z,95.18
2023-03-26T07:21:09.991Z,95.29
2023-03-26T07:23:40.822Z,95.97
2023-03-26T07:26:11.435Z,95.28
2023-03-26T07:28:42.088Z,96.75
2023-03-26T07:31:12.430Z,96.37
2023-03-26T07:33:42.432Z,96.74
2023-03-26T07:36:13.046Z,96.98
2023-03-26T07:38:43.417Z,97.14
2023-03-26T07:41:14.077Z,96.44
2023-03-26T07:43:44.688Z,96.53
2023-03-26T07:46:15.343Z,96.81
2023-03-26T07:48:45.929Z,97.29
2023-03-26T07:51:16.556Z,97.90
2023-03-26T07:53:47.192Z,96.42
2023-03-26T07:56:17.473Z,94.87
2023-03-26T07:58:48.088Z,94.23
2023-03-26T08:01:18.108Z,94.34
2023-03-26T08:03:48.766Z,93.40
2023-03-26T08:06:18.984Z,94.14
2023-03-26T08:08:49.602Z,94.03
2023-03-26T08:11:19.929Z,93.20
2023-03-26T08:13:50.549Z,93.23
2023-03-26T08:16:21.298Z,93.41
2023-03-26T08:18:51.763Z,94.71
2023-03-26T08:21:22.368Z,94.51
2023-03-26T08:23:52.723Z,94.40
2023-03-26T08:26:23.326Z,93.17
2023-03-26T08:28:54.005Z,93.45
2023-03-26T08:31:24.594Z,94.21
2023-03-26T08:33:55.191Z,94.40
2023-03-26T08:36:25.456Z,93.59
2023-03-26T08:38:56.087Z,92.55
2023-03-26T08:41:26.120Z,93.59
2023-03-26T08:43:56.626Z,92.83
2023-03-26T08:46:27.083Z,92.06
2023-03-26T08:48:57.755Z,91.91
2023-03-26T08:51:28.267Z,90.34
2023-03-26T08:53:58.978Z,91.05
2023-03-26T08:56:29.553Z,89.92
2023-03-26T08:59:00.184Z,90.36
2023-03-26T09:01:30.469Z,89.83
2023-03-26T09:04:00.841Z,90.49
2023-03-26T09:06:31.462Z,90.88
2023-03-26T09:09:01.851Z,90.54
2023-03-26T09:11:31.938Z,90.47
2023-03-26T09:14:02.214Z,90.25
2023-03-26T09:16:32.897Z,89.92
2023-03-26T09:19:03.234Z,89.62
2023-03-26T09:21:33.763Z,89.76
2023-03-26T09:24:04.407Z,89.68
2023-03-26T09:26:35.030Z,90.08
2023-03-26T09:29:05.661Z,90.11
2023-03-26T09:31:36.310Z,89.94
2023-03-26T09:34:06.882Z,89.07
2023-03-26T09:36:37.602Z,89.24
2023-03-26T09:39:08.120Z,89.83
2023-03-26T09:41:38.717Z,89.31
2023-03-26T09:44:09.358Z,89.82
2023-03-26T09:46:40.070Z,89.25
2023-03-26T09:49:10.246Z,89.45
2023-03-26T09:51:40.840Z,88.62
2023-03-26T09:54:11.445Z,89.14
2023-03-26T09:56:42.076Z,89.75
2023-03-26T09:59:12.105Z,90.20
2023-03-26T10:01:42.236Z,89.93
2023-03-26T10:04:12.970Z,89.78
2023-03-26T10:06:43.577Z,91.13
2023-03-26T10:09:14.186Z,89.66
2023-03-26T10:11:44.593Z,89.57
2023-03-26T10:14:15.245Z,88.57
2023-03-26T10:16:45.765Z,89.15
2023-03-26T10:19:16.363Z,87.99
2023-03-26T10:21:46.673Z,88.70
2023-03-26T10:24:17.287Z,88.84
2023-03-26T10:27:08.971Z,89.38
2023-03-26T10:29:18.521Z,89.92
2023-03-26T10:31:48.771Z,89.24
2023-03-26T10:34:28.601Z,88.35
2023-03-26T10:36:50.036Z,87.82
2023-03-26T10:39:36.871Z,89.01
2023-03-26T10:41:51.015Z,87.99
2023-03-26T10:44:21.662Z,87.62
2023-03-26T10:46:52.308Z,87.27
2023-03-26T10:49:22.912Z,87.24
2023-03-26T10:51:53.266Z,87.13
2023-03-26T10:54:23.893Z,87.62
2023-03-26T10:56:54.571Z,88.39
2023-03-26T10:59:24.816Z,87.42
2023-03-26T11:01:55.333Z,87.58
2023-03-26T11:04:25.733Z,88.38
2023-03-26T11:06:56.378Z,86.96
2023-03-26T11:09:27.017Z,86.87
2023-03-26T11:11:57.637Z,86.07
2023-03-26T11:14:34.829Z,86.93
2023-03-26T11:16:58.908Z,86.30
2023-03-26T11:19:29.547Z,84.89
2023-03-26T11:22:00.179Z,86.09
2023-03-26T11:24:30.817Z,85.85
2023-03-26T11:27:14.882Z,85.85
2023-03-26T11:29:33.485Z,85.01
2023-03-26T11:32:02.746Z,85.33
2023-03-26T11:34:33.359Z,85.81
2023-03-26T11:37:04.129Z,85.31
2023-03-26T11:39:34.643Z,85.57
2023-03-26T11:42:05.296Z,84.17
2023-03-26T11:44:35.912Z,85.46
2023-03-26T11:47:06.038Z,83.91
2023-03-26T11:49:36.676Z,84.53
2023-03-26T11:52:07.355Z,85.63
2023-03-26T11:54:37.962Z,83.79
2023-03-26T11:57:08.749Z,84.51
2023-03-26T11:59:53.121Z,82.80
2023-03-26T12:02:09.557Z,83.02
2023-03-26T12:04:40.227Z,83.47
2023-03-26T12:07:10.768Z,82.95
2023-03-26T12:09:40.821Z,82.83
2023-03-26T12:12:11.479Z,82.38
2023-03-26T12:14:42.076Z,83.75
2023-03-26T12:17:12.811Z,81.86
2023-03-26T12:19:43.318Z,85.16
2023-03-26T12:22:13.954Z,82.61
2023-03-26T12:24:44.566Z,81.90
2023-03-26T12:27:15.215Z,82.40
2023-03-26T12:29:45.814Z,81.68
2023-03-26T12:32:16.094Z,82.10
2023-03-26T12:34:46.709Z,81.89
2023-03-26T12:37:17.328Z,80.00
2023-03-26T12:40:09.419Z,79.51
2023-03-26T12:43:51.522Z,81.00
2023-03-26T12:44:59.299Z,82.31
2023-03-26T12:47:58.042Z,81.69
2023-03-26T12:49:50.158Z,81.19
2023-03-26T12:52:20.516Z,80.23
2023-03-26T12:54:51.140Z,78.99
2023-03-26T12:57:21.919Z,80.86
2023-03-26T12:59:52.389Z,78.42
2023-03-26T13:02:23.132Z,80.18
2023-03-26T13:05:04.984Z,79.74
2023-03-26T13:07:24.276Z,80.57
2023-03-26T13:09:54.885Z,79.95
2023-03-26T13:12:25.656Z,80.10
2023-03-26T13:14:56.360Z,80.28
2023-03-26T13:17:26.763Z,78.79
2023-03-26T13:19:57.318Z,79.86
2023-03-26T13:22:28.034Z,80.17
2023-03-26T13:24:58.342Z,79.94
2023-03-26T13:27:28.650Z,80.49
2023-03-26T13:29:58.695Z,79.18
2023-03-26T13:32:29.092Z,79.99
2023-03-26T13:34:59.791Z,80.22
2023-03-26T13:37:30.357Z,80.25
2023-03-26T13:40:01.022Z,80.23
2023-03-26T13:42:31.730Z,79.48
2023-03-26T13:45:04.557Z,80.13
2023-03-26T13:47:32.861Z,79.51
2023-03-26T13:50:03.405Z,80.00
2023-03-26T13:52:33.461Z,79.25
2023-03-26T13:55:04.062Z,80.26
2023-03-26T13:57:34.725Z,80.02
2023-03-26T14:00:05.403Z,80.20
2023-03-26T14:02:36.105Z,80.44
2023-03-26T14:05:06.628Z,79.63
2023-03-26T14:07:37.293Z,79.49
2023-03-26T14:10:07.965Z,79.86
2023-03-26T14:12:38.607Z,80.33
2023-03-26T14:15:09.217Z,80.05
2023-03-26T14:17:39.939Z,80.20
2023-03-26T14:20:10.527Z,79.13
2023-03-26T14:22:41.166Z,80.21
2023-03-26T14:25:11.806Z,79.19
2023-03-26T14:27:42.506Z,77.67
2023-03-26T14:30:12.524Z,77.21
2023-03-26T14:32:42.874Z,77.11
2023-03-26T14:35:13.478Z,76.64
2023-03-26T14:37:44.114Z,75.97
2023-03-26T14:40:14.745Z,77.23
2023-03-26T14:42:45.409Z,77.65
2023-03-26T14:45:15.576Z,76.27
2023-03-26T14:47:46.343Z,76.50
2023-03-26T14:50:16.762Z,76.61
2023-03-26T14:52:47.463Z,77.05
2023-03-26T14:55:18.107Z,77.80
2023-03-26T14:57:48.749Z,77.54
2023-03-26T15:00:19.028Z,78.73
2023-03-26T15:02:49.227Z,76.99
2023-03-26T15:05:19.482Z,76.06
2023-03-26T15:07:50.159Z,76.25
2023-03-26T15:10:20.864Z,75.54
2023-03-26T15:12:51.488Z,76.04
2023-03-26T15:15:22.099Z,76.77
2023-03-26T15:17:52.772Z,74.97
2023-03-26T15:20:23.348Z,74.74
2023-03-26T15:22:53.997Z,74.25
2023-03-26T15:25:24.612Z,74.92
2023-03-26T15:27:55.281Z,74.26
2023-03-26T15:30:27.006Z,74.40
2023-03-26T15:32:56.545Z,74.31
2023-03-26T15:35:27.211Z,74.08
2023-03-26T15:37:57.186Z,74.79
2023-03-26T15:40:27.287Z,74.62
2023-03-26T15:42:57.982Z,74.98
2023-03-26T15:45:28.575Z,75.26
2023-03-26T15:47:58.905Z,76.86
2023-03-26T15:50:29.526Z,76.52
2023-03-26T15:53:00.192Z,75.28
2023-03-26T15:55:30.836Z,76.11
2023-03-26T15:58:01.355Z,74.06
2023-03-26T16:00:31.905Z,74.35
2023-03-26T16:03:02.613Z,73.32
2023-03-26T16:05:33.310Z,73.86
2023-03-26T16:08:03.940Z,73.66
2023-03-26T16:10:34.600Z,74.08
2023-03-26T16:13:05.354Z,74.66
2023-03-26T16:15:35.997Z,74.01
2023-03-26T16:18:06.669Z,73.88
2023-03-26T16:20:37.333Z,73.13
2023-03-26T16:23:08.056Z,73.46
2023-03-26T16:25:38.711Z,73.45
2023-03-26T16:28:09.424Z,73.50
2023-03-26T16:30:40.097Z,75.23
2023-03-26T16:33:10.829Z,73.94
2023-03-26T16:35:41.591Z,75.25
2023-03-26T16:38:12.211Z,75.71
2023-03-26T16:40:42.912Z,75.73
2023-03-26T16:43:13.099Z,75.49
2023-03-26T16:45:43.735Z,76.20
2023-03-26T16:48:14.187Z,75.33
2023-03-26T16:50:44.875Z,74.41
2023-03-26T16:53:15.624Z,74.48
2023-03-26T16:55:46.376Z,74.99
2023-03-26T16:58:17.048Z,73.68
2023-03-26T17:00:47.749Z,73.84
2023-03-26T17:03:17.973Z,74.06
2023-03-26T17:05:48.220Z,74.47
2023-03-26T17:08:18.456Z,74.26
2023-03-26T17:10:48.677Z,75.16
2023-03-26T17:13:19.162Z,75.56
2023-03-26T17:15:49.816Z,75.02
2023-03-26T17:18:20.460Z,75.31
2023-03-26T17:20:51.044Z,75.25
2023-03-26T17:23:21.456Z,74.56
2023-03-26T17:25:52.218Z,74.94
2023-03-26T17:28:22.663Z,76.12
2023-03-26T17:30:52.938Z,75.62
2023-03-26T17:33:23.597Z,75.28
2023-03-26T17:35:53.984Z,75.61
2023-03-26T17:38:24.705Z,76.12
2023-03-26T17:40:55.815Z,76.92
2023-03-26T17:43:25.941Z,76.48
2023-03-26T17:46:03.600Z,76.88
2023-03-26T17:48:27.287Z,75.66
2023-03-26T17:50:58.299Z,75.98
2023-03-26T17:53:28.624Z,76.67
2023-03-26T17:55:59.394Z,76.20
2023-03-26T17:58:30.036Z,77.07
2023-03-26T18:01:00.090Z,77.59
2023-03-26T18:03:31.230Z,77.23
2023-03-26T18:06:01.546Z,77.10
2023-03-26T18:08:32.321Z,77.03
2023-03-26T18:11:02.762Z,77.69
2023-03-26T18:13:33.648Z,77.95
2023-03-26T18:16:04.010Z,77.84
2023-03-26T18:18:34.784Z,78.30
2023-03-26T18:21:05.174Z,78.30
2023-03-26T18:23:35.674Z,78.54
2023-03-26T18:26:06.435Z,78.72
2023-03-26T18:28:37.313Z,78.47
2023-03-26T18:31:07.984Z,79.42
2023-03-26T18:33:38.752Z,79.68
2023-03-26T18:36:09.504Z,79.78
2023-03-26T18:38:42.825Z,79.96
2023-03-26T18:41:11.068Z,80.63
2023-03-26T18:43:44.024Z,80.96
2023-03-26T18:46:12.665Z,81.23
2023-03-26T18:48:43.399Z,81.47
2023-03-26T18:51:14.154Z,81.22
2023-03-26T18:53:44.734Z,81.37
2023-03-26T18:56:15.425Z,81.32
2023-03-26T18:58:46.246Z,81.20
2023-03-26T19:01:25.097Z,81.28
2023-03-26T19:03:47.725Z,80.79
2023-03-26T19:06:18.236Z,81.46
2023-03-26T19:08:49.038Z,81.37
2023-03-26T19:11:19.828Z,82.03
2023-03-26T19:13:50.645Z,81.70
2023-03-26T19:16:21.470Z,81.93
2023-03-26T19:18:52.228Z,82.53
2023-03-26T19:21:23.037Z,83.26
2023-03-26T19:23:53.848Z,83.64
2023-03-26T19:26:24.363Z,83.21
2023-03-26T19:28:55.229Z,82.94
2023-03-26T19:31:26.176Z,83.65
2023-03-26T19:33:56.823Z,83.66
2023-03-26T19:36:27.625Z,83.90
2023-03-26T19:38:58.173Z,83.80
2023-03-26T19:41:29.067Z,84.30
2023-03-26T19:43:59.854Z,84.63
2023-03-26T19:46:30.308Z,84.23
2023-03-26T19:49:01.255Z,83.99
2023-03-26T19:51:31.892Z,84.21
2023-03-26T19:54:02.709Z,84.47
2023-03-26T19:56:33.288Z,84.47
2023-03-26T19:59:04.144Z,83.67
2023-03-26T20:01:34.903Z,83.65
2023-03-26T20:04:05.716Z,83.34
2023-03-26T20:06:43.172Z,83.41
2023-03-26T20:09:07.365Z,83.68
2023-03-26T20:11:38.176Z,83.31
2023-03-26T20:14:09.044Z,83.20
2023-03-26T20:16:41.031Z,83.96
2023-03-26T20:19:10.691Z,84.26
2023-03-26T20:21:41.677Z,83.91
2023-03-26T20:24:12.446Z,84.82
2023-03-26T20:26:43.184Z,84.11
2023-03-26T20:29:14.077Z,84.68
2023-03-26T20:31:44.844Z,84.04
2023-03-26T20:34:15.754Z,83.85
2023-03-26T20:36:46.690Z,83.63
2023-03-26T20:39:17.431Z,83.53
2023-03-26T20:41:48.272Z,83.78
2023-03-26T20:44:19.073Z,83.21
2023-03-26T20:46:50.068Z,83.58
2023-03-26T20:49:20.763Z,83.12
2023-03-26T20:51:51.542Z,83.03
2023-03-26T20:54:22.438Z,83.27
2023-03-26T20:56:52.638Z,83.21
2023-03-26T20:59:23.280Z,83.73
2023-03-26T21:01:54.212Z,83.34
2023-03-26T21:04:25.046Z,83.23
2023-03-26T21:09:26.616Z,82.97
2023-03-26T21:11:57.429Z,83.51
2023-03-26T21:14:28.299Z,83.58
2023-03-26T21:16:59.173Z,83.10
2023-03-26T21:19:29.936Z,83.34
2023-03-26T21:22:00.780Z,83.29
2023-03-26T21:24:31.617Z,83.74
2023-03-26T21:27:02.444Z,83.43
2023-03-26T21:29:33.330Z,83.53
2023-03-26T21:32:04.150Z,83.54
2023-03-26T21:34:35.107Z,83.72
2023-03-26T21:37:05.791Z,83.66
2023-03-26T21:39:36.718Z,83.78
2023-03-26T21:42:07.458Z,83.77
2023-03-26T21:44:38.366Z,83.90
2023-03-26T21:47:09.884Z,84.19
2023-03-26T21:49:45.061Z,84.19
2023-03-26T21:52:12.005Z,84.11
2023-03-26T21:54:41.615Z,84.00
2023-03-26T21:57:12.230Z,84.07
2023-03-26T21:59:42.916Z,84.04
2023-03-26T22:02:13.793Z,84.16
2023-03-26T22:04:44.567Z,84.25
2023-03-26T22:07:15.362Z,84.05
2023-03-26T22:09:46.192Z,84.00
2023-03-26T22:12:16.726Z,84.23
2023-03-26T22:14:47.579Z,84.21
2023-03-26T22:17:18.368Z,84.40
2023-03-26T22:19:49.233Z,84.97
2023-03-26T22:22:20.025Z,85.49
2023-03-26T22:24:50.863Z,85.91
2023-03-26T22:27:21.685Z,86.22
2023-03-26T22:29:52.598Z,85.98
2023-03-26T22:32:23.416Z,86.29
2023-03-26T22:34:53.458Z,86.29
2023-03-26T22:37:24.223Z,86.22
2023-03-26T22:39:55.092Z,86.21
2023-03-26T22:42:25.924Z,86.14
2023-03-26T22:44:56.815Z,86.76
2023-03-26T22:47:27.682Z,86.76
2023-03-26T22:49:58.513Z,86.96
2023-03-26T22:52:29.334Z,86.85
2023-03-26T22:55:00.208Z,86.78
2023-03-26T22:57:31.028Z,87.01
2023-03-26T23:00:01.940Z,87.38
2023-03-26T23:02:32.748Z,86.92
2023-03-26T23:05:03.585Z,86.61
2023-03-26T23:07:34.408Z,86.76
2023-03-26T23:10:05.387Z,86.58
2023-03-26T23:12:36.101Z,86.64
2023-03-26T23:15:06.957Z,86.63
2023-03-26T23:17:37.862Z,86.40
2023-03-26T23:20:08.634Z,86.60
2023-03-26T23:22:39.464Z,87.34
2023-03-26T23:25:10.345Z,87.11
2023-03-26T23:27:41.292Z,87.06
2023-03-26T23:30:12.053Z,87.53
2023-03-26T23:32:42.932Z,87.83
2023-03-26T23:35:13.755Z,87.69
2023-03-26T23:37:44.265Z,88.04
2023-03-26T23:40:14.306Z,89.13
2023-03-26T23:42:44.405Z,89.33
2023-03-26T23:45:15.199Z,88.91
2023-03-26T23:50:16.997Z,88.85
2023-03-26T23:52:47.780Z,89.23
2023-03-26T23:55:18.688Z,88.70
2023-03-26T23:57:49.593Z,88.83
